createdAt,value
2018-10-16T00:00:20.728Z,25.4
2018-10-16T00:01:18.210Z,25.4
2018-10-16T00:02:20.933Z,25.4
2018-10-16T00:03:19.005Z,25.4
2018-10-16T00:04:18.154Z,25.4
2018-10-16T00:05:15.961Z,25.4
2018-10-16T00:06:22.554Z,25.4
2018-10-16T00:07:20.967Z,25.4
2018-10-16T00:08:18.716Z,25.4
2018-10-16T00:09:16.663Z,25.4
2018-10-16T00:10:17.697Z,25.4
2018-10-16T00:11:18.998Z,25.4
2018-10-16T00:12:16.984Z,25.4
2018-10-16T00:13:15.521Z,25.4
2018-10-16T00:14:22.109Z,25.3
2018-10-16T00:15:24.390Z,25.4
2018-10-16T00:16:24.306Z,25.3
2018-10-16T00:17:24.561Z,25.3
2018-10-16T00:18:23.616Z,25.3
2018-10-16T00:19:20.574Z,25.3
2018-10-16T00:20:18.370Z,25.3
2018-10-16T00:21:16.008Z,25.3
2018-10-16T00:22:13.381Z,25.3
2018-10-16T00:23:11.757Z,25.3
2018-10-16T00:24:13.688Z,25.3
2018-10-16T00:25:14.909Z,25.3
2018-10-16T00:26:19.409Z,25.3
2018-10-16T00:27:19.638Z,25.2
2018-10-16T00:28:16.681Z,25.2
2018-10-16T00:29:17.659Z,25.3
2018-10-16T00:30:19.473Z,25.3
2018-10-16T00:31:24.644Z,25.2
2018-10-16T00:32:22.163Z,25.2
2018-10-16T00:33:20.529Z,25.2
2018-10-16T00:34:19.967Z,25.2
2018-10-16T00:35:27.863Z,25.2
2018-10-16T00:36:32.175Z,25.2
2018-10-16T00:37:46.292Z,25.2
2018-10-16T00:38:48.558Z,25.2
2018-10-16T00:39:49.461Z,25.2
2018-10-16T00:40:46.428Z,25.2
2018-10-16T00:41:50.474Z,25.2
2018-10-16T00:42:48.291Z,25.1
2018-10-16T00:43:46.228Z,25.2
2018-10-16T00:44:43.233Z,25.1
2018-10-16T00:45:44.360Z,25.2
2018-10-16T00:46:49.668Z,25.2
2018-10-16T00:47:46.384Z,25.1
2018-10-16T00:48:46.672Z,25.1
2018-10-16T00:49:47.350Z,25.1
2018-10-16T00:50:48.519Z,25.1
2018-10-16T00:51:47.917Z,25.1
2018-10-16T00:52:44.752Z,25.1
2018-10-16T00:53:41.532Z,25.1
2018-10-16T00:54:40.248Z,25.1
2018-10-16T00:55:39.220Z,25.1
2018-10-16T00:56:39.739Z,25.1
2018-10-16T00:57:37.835Z,25.1
2018-10-16T00:58:35.368Z,25.1
2018-10-16T00:59:32.468Z,25
2018-10-16T01:00:36.594Z,25.1
2018-10-16T01:01:41.902Z,25
2018-10-16T01:02:41.597Z,25.1
2018-10-16T01:03:38.939Z,25.1
2018-10-16T01:04:36.956Z,25
2018-10-16T01:05:34.018Z,25
2018-10-16T01:06:32.344Z,25
2018-10-16T01:07:30.173Z,25
2018-10-16T01:08:27.894Z,25
2018-10-16T01:09:24.777Z,25
2018-10-16T01:10:32.816Z,25
2018-10-16T01:11:30.413Z,25
2018-10-16T01:12:30.237Z,25
2018-10-16T01:13:28.597Z,25
2018-10-16T01:14:26.152Z,25
2018-10-16T01:15:23.458Z,25
2018-10-16T01:16:23.201Z,25
2018-10-16T01:17:22.636Z,25
2018-10-16T01:18:20.535Z,25
2018-10-16T01:19:18.533Z,25
2018-10-16T01:20:17.712Z,25
2018-10-16T01:21:15.440Z,25
2018-10-16T01:22:14.779Z,25
2018-10-16T01:23:17.845Z,24.9
2018-10-16T01:24:26.735Z,25
2018-10-16T01:25:24.941Z,24.9
2018-10-16T01:26:21.889Z,24.9
2018-10-16T01:27:22.552Z,25
2018-10-16T01:28:23.581Z,25
2018-10-16T01:29:23.151Z,25
2018-10-16T01:30:21.052Z,24.9
2018-10-16T01:31:19.344Z,24.9
2018-10-16T01:32:22.665Z,24.9
2018-10-16T01:33:19.644Z,25
2018-10-16T01:34:18.378Z,24.9
2018-10-16T01:35:15.207Z,24.9
2018-10-16T01:36:16.475Z,24.9
2018-10-16T01:37:15.321Z,24.9
2018-10-16T01:38:16.827Z,24.9
2018-10-16T01:39:14.791Z,24.9
2018-10-16T01:40:13.623Z,24.9
2018-10-16T01:41:11.495Z,24.9
2018-10-16T01:42:15.602Z,24.9
2018-10-16T01:43:19.674Z,24.9
2018-10-16T01:44:25.929Z,24.9
2018-10-16T01:45:23.982Z,24.9
2018-10-16T01:46:26.845Z,24.9
2018-10-16T01:47:35.496Z,24.9
2018-10-16T01:48:32.307Z,24.9
2018-10-16T01:49:29.173Z,24.9
2018-10-16T01:50:30.370Z,24.8
2018-10-16T01:51:30.423Z,24.8
2018-10-16T01:52:28.727Z,24.8
2018-10-16T01:53:27.589Z,24.8
2018-10-16T01:54:25.733Z,24.8
2018-10-16T01:55:24.334Z,24.8
2018-10-16T01:56:24.329Z,24.8
2018-10-16T01:57:22.554Z,24.8
2018-10-16T01:58:19.697Z,24.8
2018-10-16T01:59:17.259Z,24.8
2018-10-16T02:00:19.728Z,24.8
2018-10-16T02:01:19.399Z,24.8
2018-10-16T02:02:17.213Z,24.8
2018-10-16T02:03:14.724Z,24.8
2018-10-16T02:04:11.824Z,24.8
2018-10-16T02:05:08.957Z,24.8
2018-10-16T02:06:05.955Z,24.8
2018-10-16T02:07:06.199Z,24.8
2018-10-16T02:08:05.946Z,24.8
2018-10-16T02:09:07.457Z,24.8
2018-10-16T02:10:05.895Z,24.8
2018-10-16T02:11:02.652Z,24.8
2018-10-16T02:12:04.699Z,24.8
2018-10-16T02:13:04.163Z,24.8
2018-10-16T02:14:03.331Z,24.7
2018-10-16T02:15:02.725Z,24.8
2018-10-16T02:16:01.534Z,24.7
2018-10-16T02:17:02.202Z,24.7
2018-10-16T02:17:59.962Z,24.7
2018-10-16T02:19:00.797Z,24.7
2018-10-16T02:19:57.594Z,24.7
2018-10-16T02:20:56.705Z,24.7
2018-10-16T02:21:55.696Z,24.7
2018-10-16T02:22:52.676Z,24.7
2018-10-16T02:23:49.477Z,24.7
2018-10-16T02:24:48.326Z,24.7
2018-10-16T02:25:47.896Z,24.7
2018-10-16T02:26:45.244Z,24.7
2018-10-16T02:27:42.573Z,24.7
2018-10-16T02:28:40.997Z,24.7
2018-10-16T02:29:38.578Z,24.7
2018-10-16T02:30:37.466Z,24.7
2018-10-16T02:31:38.863Z,24.7
2018-10-16T02:32:44.634Z,24.7
2018-10-16T02:33:39.140Z,24.7
2018-10-16T02:34:41.313Z,24.7
2018-10-16T02:35:39.855Z,24.7
2018-10-16T02:36:40.590Z,24.7
2018-10-16T02:37:44.862Z,24.7
2018-10-16T02:38:47.700Z,24.7
2018-10-16T02:39:46.095Z,24.7
2018-10-16T02:40:45.419Z,24.7
2018-10-16T02:41:46.813Z,24.7
2018-10-16T02:42:43.946Z,24.7
2018-10-16T02:43:42.560Z,24.7
2018-10-16T02:44:41.565Z,24.7
2018-10-16T02:45:43.704Z,24.7
2018-10-16T02:46:40.515Z,24.7
2018-10-16T02:47:38.302Z,24.6
2018-10-16T02:48:36.949Z,24.6
2018-10-16T02:49:36.126Z,24.7
2018-10-16T02:50:35.180Z,24.6
2018-10-16T02:51:33.952Z,24.7
2018-10-16T02:52:30.748Z,24.6
2018-10-16T02:53:32.786Z,24.6
2018-10-16T02:54:30.815Z,24.6
2018-10-16T02:55:27.872Z,24.6
2018-10-16T02:56:27.398Z,24.6
2018-10-16T02:57:24.463Z,24.6
2018-10-16T02:58:23.667Z,24.6
2018-10-16T02:59:21.936Z,24.6
2018-10-16T03:00:19.173Z,24.6
2018-10-16T03:01:19.401Z,24.6
2018-10-16T03:02:16.834Z,24.6
2018-10-16T03:03:13.696Z,24.6
2018-10-16T03:04:11.478Z,24.6
2018-10-16T03:04:44.650Z,24.6
2018-10-16T03:05:41.860Z,24.6
2018-10-16T03:06:41.064Z,24.6
2018-10-16T03:07:37.976Z,24.6
2018-10-16T03:08:39.802Z,24.6
2018-10-16T03:09:36.577Z,24.6
2018-10-16T03:10:34.185Z,24.6
2018-10-16T03:11:34.580Z,24.6
2018-10-16T03:12:34.402Z,24.5
2018-10-16T03:13:32.880Z,24.6
2018-10-16T03:14:30.857Z,24.6
2018-10-16T03:15:30.603Z,24.6
2018-10-16T03:16:35.960Z,24.6
2018-10-16T03:17:35.450Z,24.6
2018-10-16T03:18:34.544Z,24.6
2018-10-16T03:19:33.597Z,24.6
2018-10-16T03:20:36.442Z,24.5
2018-10-16T03:21:36.951Z,24.5
2018-10-16T03:22:35.478Z,24.5
2018-10-16T03:23:34.649Z,24.5
2018-10-16T03:24:32.614Z,24.5
2018-10-16T03:25:29.890Z,24.5
2018-10-16T03:26:29.782Z,24.5
2018-10-16T03:27:28.640Z,24.5
2018-10-16T03:28:28.844Z,24.5
2018-10-16T03:29:28.558Z,24.5
2018-10-16T03:30:25.478Z,24.5
2018-10-16T03:31:30.227Z,24.5
2018-10-16T03:32:28.153Z,24.5
2018-10-16T03:33:27.043Z,24.5
2018-10-16T03:34:24.561Z,24.5
2018-10-16T03:35:23.778Z,24.5
2018-10-16T03:36:22.675Z,24.5
2018-10-16T03:37:20.290Z,24.5
2018-10-16T03:38:18.777Z,24.5
2018-10-16T03:39:18.261Z,24.5
2018-10-16T03:40:15.408Z,24.5
2018-10-16T03:41:13.648Z,24.5
2018-10-16T03:42:11.648Z,24.5
2018-10-16T03:43:18.727Z,24.5
2018-10-16T03:44:15.753Z,24.4
2018-10-16T03:45:15.847Z,24.5
2018-10-16T03:46:12.774Z,24.5
2018-10-16T03:47:15.984Z,24.5
2018-10-16T03:48:14.264Z,24.5
2018-10-16T03:49:20.959Z,24.5
2018-10-16T03:50:17.446Z,24.5
2018-10-16T03:51:15.919Z,24.5
2018-10-16T03:52:12.753Z,24.4
2018-10-16T03:53:10.404Z,24.4
2018-10-16T03:54:08.077Z,24.4
2018-10-16T03:55:07.745Z,24.4
2018-10-16T03:56:05.153Z,24.5
2018-10-16T03:57:03.354Z,24.4
2018-10-16T03:58:01.732Z,24.4
2018-10-16T03:59:15.396Z,24.4
2018-10-16T04:00:12.567Z,24.4
2018-10-16T04:01:12.107Z,24.4
2018-10-16T04:02:10.943Z,24.4
2018-10-16T04:03:07.556Z,24.4
2018-10-16T04:04:05.797Z,24.4
2018-10-16T04:05:02.347Z,24.4
2018-10-16T04:06:05.968Z,24.4
2018-10-16T04:07:05.463Z,24.4
2018-10-16T04:08:04.669Z,24.4
2018-10-16T04:09:05.061Z,24.4
2018-10-16T04:10:09.752Z,24.4
2018-10-16T04:11:11.704Z,24.4
2018-10-16T04:12:08.922Z,24.4
2018-10-16T04:13:07.229Z,24.4
2018-10-16T04:14:03.983Z,24.4
2018-10-16T04:15:10.558Z,24.4
2018-10-16T04:16:11.958Z,24.4
2018-10-16T04:17:10.224Z,24.4
2018-10-16T04:18:08.090Z,24.4
2018-10-16T04:19:05.326Z,24.4
2018-10-16T04:20:02.096Z,24.4
2018-10-16T04:21:08.807Z,24.4
2018-10-16T04:22:09.434Z,24.4
2018-10-16T04:23:15.623Z,24.4
2018-10-16T04:24:13.359Z,24.4
2018-10-16T04:25:11.301Z,24.4
2018-10-16T04:26:12.985Z,24.4
2018-10-16T04:27:10.746Z,24.4
2018-10-16T04:28:11.236Z,24.4
2018-10-16T04:29:13.884Z,24.4
2018-10-16T04:30:15.748Z,24.4
2018-10-16T04:31:13.221Z,24.4
2018-10-16T04:32:12.987Z,24.4
2018-10-16T04:33:10.816Z,24.4
2018-10-16T04:34:09.559Z,24.3
2018-10-16T04:35:08.080Z,24.3
2018-10-16T04:36:10.782Z,24.3
2018-10-16T04:37:12.986Z,24.3
2018-10-16T04:38:18.982Z,24.3
2018-10-16T04:39:16.311Z,24.3
2018-10-16T04:40:17.459Z,24.3
2018-10-16T04:41:22.264Z,24.4
2018-10-16T04:42:24.399Z,24.3
2018-10-16T04:43:25.028Z,24.3
2018-10-16T04:44:27.288Z,24.3
2018-10-16T04:45:24.377Z,24.3
2018-10-16T04:46:21.952Z,24.3
2018-10-16T04:47:18.960Z,24.3
2018-10-16T04:48:17.065Z,24.3
2018-10-16T04:49:13.705Z,24.3
2018-10-16T04:50:14.128Z,24.3
2018-10-16T04:51:10.992Z,24.3
2018-10-16T04:52:12.259Z,24.3
2018-10-16T04:53:10.130Z,24.3
2018-10-16T04:54:07.129Z,24.3
2018-10-16T04:55:03.860Z,24.3
2018-10-16T04:56:03.942Z,24.3
2018-10-16T04:57:02.988Z,24.3
2018-10-16T04:58:02.836Z,24.3
2018-10-16T04:59:01.517Z,24.3
2018-10-16T05:00:04.384Z,24.3
2018-10-16T05:01:06.779Z,24.3
2018-10-16T05:02:04.050Z,24.3
2018-10-16T05:03:00.858Z,24.3
2018-10-16T05:04:02.687Z,24.3
2018-10-16T05:05:00.204Z,24.3
2018-10-16T05:05:57.544Z,24.3
2018-10-16T05:06:54.854Z,24.2
2018-10-16T05:07:56.563Z,24.3
2018-10-16T05:08:56.018Z,24.3
2018-10-16T05:09:56.393Z,24.2
2018-10-16T05:10:57.269Z,24.3
2018-10-16T05:12:00.652Z,24.3
2018-10-16T05:13:01.587Z,24.2
2018-10-16T05:14:03.617Z,24.2
2018-10-16T05:15:04.861Z,24.2
2018-10-16T05:16:04.631Z,24.2
2018-10-16T05:17:02.678Z,24.2
2018-10-16T05:18:06.681Z,24.2
2018-10-16T05:19:04.576Z,24.2
2018-10-16T05:20:09.762Z,24.2
2018-10-16T05:21:12.145Z,24.2
2018-10-16T05:22:08.797Z,24.2
2018-10-16T05:23:06.174Z,24.2
2018-10-16T05:24:04.007Z,24.2
2018-10-16T05:25:00.606Z,24.2
2018-10-16T05:25:58.109Z,24.2
2018-10-16T05:26:55.970Z,24.2
2018-10-16T05:27:52.693Z,24.2
2018-10-16T05:28:50.439Z,24.2
2018-10-16T05:29:50.433Z,24.2
2018-10-16T05:30:48.584Z,24.2
2018-10-16T05:31:48.404Z,24.2
2018-10-16T05:32:48.207Z,24.2
2018-10-16T05:33:51.133Z,24.2
2018-10-16T05:34:50.367Z,24.2
2018-10-16T05:35:48.301Z,24.2
2018-10-16T05:36:48.783Z,24.2
2018-10-16T05:37:45.923Z,24.2
2018-10-16T05:38:47.784Z,24.2
2018-10-16T05:39:44.235Z,24.2
2018-10-16T05:40:42.880Z,24.2
2018-10-16T05:41:40.966Z,24.2
2018-10-16T05:42:40.803Z,24.2
2018-10-16T05:43:39.176Z,24.2
2018-10-16T05:44:36.041Z,24.2
2018-10-16T05:45:33.423Z,24.2
2018-10-16T05:46:32.481Z,24.2
2018-10-16T05:47:31.931Z,24.2
2018-10-16T05:48:28.406Z,24.2
2018-10-16T05:49:25.577Z,24.2
2018-10-16T05:50:24.148Z,24.2
2018-10-16T05:51:33.538Z,24.2
2018-10-16T05:52:31.644Z,24.2
2018-10-16T05:53:28.177Z,24.2
2018-10-16T05:54:25.967Z,24.2
2018-10-16T05:55:27.551Z,24.2
2018-10-16T05:56:38.236Z,24.2
2018-10-16T05:57:36.912Z,24.2
2018-10-16T05:58:37.684Z,24.2
2018-10-16T05:59:37.693Z,24.2
2018-10-16T06:00:34.567Z,24.2
2018-10-16T06:01:39.508Z,24.1
2018-10-16T06:02:36.072Z,24.1
2018-10-16T06:03:35.240Z,24
2018-10-16T06:04:32.863Z,24
2018-10-16T06:05:31.984Z,24
2018-10-16T06:06:36.373Z,23.9
2018-10-16T06:07:32.851Z,23.9
2018-10-16T06:08:33.719Z,23.8
2018-10-16T06:09:39.153Z,23.8
2018-10-16T06:10:35.690Z,23.7
2018-10-16T06:11:31.990Z,23.7
2018-10-16T06:12:31.737Z,23.7
2018-10-16T06:13:29.212Z,23.7
2018-10-16T06:14:36.135Z,23.6
2018-10-16T06:15:37.288Z,23.6
2018-10-16T06:16:35.558Z,23.6
2018-10-16T06:17:33.382Z,23.5
2018-10-16T06:18:34.403Z,23.5
2018-10-16T06:19:30.628Z,23.5
2018-10-16T06:20:28.383Z,23.5
2018-10-16T06:21:26.426Z,23.5
2018-10-16T06:22:23.969Z,23.4
2018-10-16T06:23:22.580Z,23.4
2018-10-16T06:24:21.396Z,23.4
2018-10-16T06:25:17.736Z,23.4
2018-10-16T06:26:15.632Z,23.4
2018-10-16T06:27:12.230Z,23.4
2018-10-16T06:28:15.638Z,23.4
2018-10-16T06:29:23.086Z,23.3
2018-10-16T06:30:21.663Z,23.3
2018-10-16T06:31:22.939Z,23.3
2018-10-16T06:32:20.934Z,23.3
2018-10-16T06:33:17.641Z,23.3
2018-10-16T06:34:17.301Z,23.3
2018-10-16T06:35:14.704Z,23.3
2018-10-16T06:36:12.167Z,23.3
2018-10-16T06:37:09.474Z,23.2
2018-10-16T06:38:06.500Z,23.2
2018-10-16T06:39:14.808Z,23.2
2018-10-16T06:40:11.981Z,23.1
2018-10-16T06:41:09.906Z,23.1
2018-10-16T06:42:06.365Z,23.1
2018-10-16T06:43:09.052Z,23.1
2018-10-16T06:44:09.781Z,23.1
2018-10-16T06:45:09.789Z,23.1
2018-10-16T06:46:08.112Z,23.1
2018-10-16T06:47:05.190Z,23.1
2018-10-16T06:48:03.944Z,23
2018-10-16T06:49:02.873Z,23
2018-10-16T06:50:00.402Z,23
2018-10-16T06:51:01.176Z,23
2018-10-16T06:52:05.127Z,23
2018-10-16T06:53:06.006Z,23
2018-10-16T06:54:07.742Z,23
2018-10-16T06:55:06.547Z,23
2018-10-16T06:56:09.761Z,23
2018-10-16T06:57:07.501Z,23
2018-10-16T06:58:07.739Z,23
2018-10-16T06:59:05.096Z,22.9
2018-10-16T07:00:01.635Z,22.9
2018-10-16T07:00:59.373Z,22.9
2018-10-16T07:01:57.523Z,22.8
2018-10-16T07:02:54.769Z,22.8
2018-10-16T07:03:50.852Z,22.7
2018-10-16T07:04:47.789Z,22.7
2018-10-16T07:05:44.657Z,22.6
2018-10-16T07:06:42.190Z,22.5
2018-10-16T07:07:48.142Z,22.4
2018-10-16T07:08:47.978Z,22.3
2018-10-16T07:09:46.135Z,22.2
2018-10-16T07:10:43.670Z,22.1
2018-10-16T07:11:46.789Z,22
2018-10-16T07:12:43.337Z,21.9
2018-10-16T07:13:40.180Z,21.8
2018-10-16T07:14:39.420Z,21.7
2018-10-16T07:15:36.199Z,21.7
2018-10-16T07:16:32.327Z,21.6
2018-10-16T07:17:29.740Z,21.6
2018-10-16T07:18:25.905Z,21.6
2018-10-16T07:19:25.012Z,21.6
2018-10-16T07:20:25.512Z,21.6
2018-10-16T07:21:21.906Z,21.6
2018-10-16T07:22:19.860Z,21.6
2018-10-16T07:23:26.782Z,21.6
2018-10-16T07:24:31.842Z,21.6
2018-10-16T07:25:37.880Z,21.6
2018-10-16T07:26:33.901Z,21.6
2018-10-16T07:27:30.175Z,21.7
2018-10-16T07:28:29.567Z,21.7
2018-10-16T07:29:28.204Z,21.7
2018-10-16T07:30:25.936Z,21.7
2018-10-16T07:31:24.955Z,21.7
2018-10-16T07:32:22.441Z,21.8
2018-10-16T07:33:20.919Z,21.8
2018-10-16T07:34:23.949Z,21.8
2018-10-16T07:35:19.637Z,21.8
2018-10-16T07:36:16.979Z,21.9
2018-10-16T07:37:12.791Z,21.9
2018-10-16T07:38:14.722Z,21.9
2018-10-16T07:39:13.289Z,21.9
2018-10-16T07:40:11.256Z,21.9
2018-10-16T07:41:09.863Z,21.9
2018-10-16T07:42:05.901Z,21.9
2018-10-16T07:43:10.562Z,21.9
2018-10-16T07:44:08.269Z,21.9
2018-10-16T07:45:04.858Z,21.9
2018-10-16T07:46:00.611Z,21.8
2018-10-16T07:46:56.750Z,21.8
2018-10-16T07:47:55.774Z,21.8
2018-10-16T07:49:01.020Z,21.8
2018-10-16T07:50:00.830Z,21.7
2018-10-16T07:50:56.780Z,21.7
2018-10-16T07:51:53.916Z,21.7
2018-10-16T07:52:50.661Z,21.6
2018-10-16T07:53:53.205Z,21.6
2018-10-16T07:54:52.513Z,21.6
2018-10-16T07:55:49.373Z,21.5
2018-10-16T07:56:46.098Z,21.5
2018-10-16T07:57:42.528Z,21.5
2018-10-16T07:58:39.819Z,21.5
2018-10-16T07:59:36.441Z,21.5
2018-10-16T08:00:32.802Z,21.5
2018-10-16T08:01:29.589Z,21.5
2018-10-16T08:02:29.494Z,21.5
2018-10-16T08:03:28.044Z,21.5
2018-10-16T08:04:27.226Z,21.6
2018-10-16T08:05:24.594Z,21.6
2018-10-16T08:06:26.593Z,21.7
2018-10-16T08:07:25.299Z,21.7
2018-10-16T08:08:22.560Z,21.8
2018-10-16T08:09:20.678Z,21.8
2018-10-16T08:10:20.494Z,21.9
2018-10-16T08:11:17.149Z,21.9
2018-10-16T08:12:15.542Z,22
2018-10-16T08:13:13.840Z,22
2018-10-16T08:14:17.212Z,22.1
2018-10-16T08:15:13.844Z,22.1
2018-10-16T08:16:12.505Z,22.2
2018-10-16T08:17:08.661Z,22.2
2018-10-16T08:18:05.846Z,22.3
2018-10-16T08:19:05.770Z,22.3
2018-10-16T08:20:01.665Z,22.4
2018-10-16T08:20:58.359Z,22.4
2018-10-16T08:21:56.063Z,22.4
2018-10-16T08:22:54.508Z,22.5
2018-10-16T08:23:53.485Z,22.5
2018-10-16T08:24:51.094Z,22.6
2018-10-16T08:25:56.904Z,22.6
2018-10-16T08:26:56.136Z,22.7
2018-10-16T08:27:51.934Z,22.7
2018-10-16T08:28:51.156Z,22.7
2018-10-16T08:29:49.640Z,22.8
2018-10-16T08:30:51.826Z,22.8
2018-10-16T08:31:48.421Z,22.8
2018-10-16T08:32:47.162Z,22.9
2018-10-16T08:33:43.945Z,22.9
2018-10-16T08:34:40.387Z,22.9
2018-10-16T08:35:40.721Z,22.9
2018-10-16T08:36:37.641Z,23
2018-10-16T08:37:36.911Z,23
2018-10-16T08:38:33.221Z,23
2018-10-16T08:39:29.470Z,23
2018-10-16T08:40:27.748Z,23.1
2018-10-16T08:41:25.327Z,23.1
2018-10-16T08:42:21.928Z,23.1
2018-10-16T08:43:18.045Z,23.1
2018-10-16T08:44:15.565Z,23.1
2018-10-16T08:45:18.930Z,23.2
2018-10-16T08:46:15.323Z,23.2
2018-10-16T08:47:16.523Z,23.2
2018-10-16T08:48:17.391Z,23.2
2018-10-16T08:49:11.263Z,23.2
2018-10-16T08:50:11.529Z,23.3
2018-10-16T08:51:10.373Z,23.3
2018-10-16T08:52:08.478Z,23.3
2018-10-16T08:53:05.130Z,23.3
2018-10-16T08:54:09.677Z,23.3
2018-10-16T08:55:11.810Z,23.3
2018-10-16T08:56:09.680Z,23.3
2018-10-16T08:57:08.597Z,23.4
2018-10-16T08:58:09.142Z,23.4
2018-10-16T08:59:08.409Z,23.4
2018-10-16T09:00:05.452Z,23.4
2018-10-16T09:01:03.698Z,23.4
2018-10-16T09:01:59.946Z,23.4
2018-10-16T09:03:00.110Z,23.4
2018-10-16T09:04:00.008Z,23.4
2018-10-16T09:04:57.150Z,23.5
2018-10-16T09:05:53.847Z,23.5
2018-10-16T09:06:52.492Z,23.4
2018-10-16T09:07:50.737Z,23.5
2018-10-16T09:08:49.772Z,23.5
2018-10-16T09:09:47.432Z,23.5
2018-10-16T09:10:44.136Z,23.5
2018-10-16T09:11:56.110Z,23.5
2018-10-16T09:12:53.209Z,23.5
2018-10-16T09:13:54.221Z,23.5
2018-10-16T09:14:56.040Z,23.5
2018-10-16T09:15:52.940Z,23.6
2018-10-16T09:16:50.901Z,23.5
2018-10-16T09:17:51.218Z,23.6
2018-10-16T09:18:54.820Z,23.6
2018-10-16T09:19:53.259Z,23.6
2018-10-16T09:20:49.432Z,23.6
2018-10-16T09:21:53.550Z,23.6
2018-10-16T09:22:50.456Z,23.6
2018-10-16T09:23:49.748Z,23.7
2018-10-16T09:24:48.163Z,23.6
2018-10-16T09:25:48.448Z,23.7
2018-10-16T09:26:48.883Z,23.7
2018-10-16T09:27:49.459Z,23.7
2018-10-16T09:28:46.758Z,23.7
2018-10-16T09:29:44.181Z,23.7
2018-10-16T09:30:40.733Z,23.7
2018-10-16T09:31:38.063Z,23.7
2018-10-16T09:32:35.700Z,23.7
2018-10-16T09:33:32.547Z,23.7
2018-10-16T09:34:35.350Z,23.7
2018-10-16T09:35:32.991Z,23.8
2018-10-16T09:36:30.323Z,23.7
2018-10-16T09:37:29.008Z,23.8
2018-10-16T09:38:26.414Z,23.8
2018-10-16T09:39:22.931Z,23.8
2018-10-16T09:40:21.706Z,23.8
2018-10-16T09:41:18.402Z,23.8
2018-10-16T09:42:20.514Z,23.8
2018-10-16T09:43:17.334Z,23.8
2018-10-16T09:44:13.819Z,23.8
2018-10-16T09:45:10.350Z,23.9
2018-10-16T09:46:07.624Z,23.8
2018-10-16T09:47:04.008Z,23.8
2018-10-16T09:48:00.610Z,23.8
2018-10-16T09:48:50.452Z,23.8
2018-10-16T09:49:53.247Z,23.8
2018-10-16T09:50:50.907Z,23.8
2018-10-16T09:51:48.703Z,23.8
2018-10-16T09:52:45.449Z,23.8
2018-10-16T09:53:42.298Z,23.9
2018-10-16T09:54:38.668Z,23.9
2018-10-16T09:55:35.643Z,23.9
2018-10-16T09:56:40.377Z,23.9
2018-10-16T09:57:37.078Z,23.9
2018-10-16T09:58:34.016Z,23.9
2018-10-16T09:59:55.972Z,23.9
2018-10-16T10:00:52.540Z,23.9
2018-10-16T10:01:50.247Z,23.9
2018-10-16T10:02:51.737Z,23.9
2018-10-16T10:03:52.727Z,23.9
2018-10-16T10:04:50.187Z,23.9
2018-10-16T10:05:48.327Z,23.9
2018-10-16T10:06:45.883Z,23.9
2018-10-16T10:07:44.325Z,23.9
2018-10-16T10:08:42.750Z,24
2018-10-16T10:09:41.249Z,24
2018-10-16T10:10:41.013Z,24
2018-10-16T10:11:47.063Z,24
2018-10-16T10:12:46.694Z,24
2018-10-16T10:13:48.029Z,24
2018-10-16T10:14:45.306Z,24
2018-10-16T10:15:42.582Z,24
2018-10-16T10:16:39.839Z,24
2018-10-16T10:17:49.333Z,24
2018-10-16T10:18:47.270Z,24
2018-10-16T10:19:50.482Z,24
2018-10-16T10:20:48.700Z,24
2018-10-16T10:21:46.405Z,24
2018-10-16T10:22:49.257Z,24
2018-10-16T10:23:46.513Z,24
2018-10-16T10:24:57.450Z,24
2018-10-16T10:25:56.716Z,24
2018-10-16T10:26:56.771Z,24
2018-10-16T10:27:55.512Z,24
2018-10-16T10:28:52.888Z,24.1
2018-10-16T10:29:52.210Z,24.1
2018-10-16T10:30:50.488Z,24.1
2018-10-16T10:31:51.662Z,24.1
2018-10-16T10:32:49.295Z,24.1
2018-10-16T10:33:47.741Z,24.1
2018-10-16T10:34:50.818Z,24.1
2018-10-16T10:35:49.053Z,24.1
2018-10-16T10:36:50.424Z,24.1
2018-10-16T10:37:49.528Z,24.1
2018-10-16T10:38:48.633Z,24.1
2018-10-16T10:39:46.150Z,24.1
2018-10-16T10:40:43.904Z,24.1
2018-10-16T10:41:43.380Z,24.1
2018-10-16T10:42:44.721Z,24.2
2018-10-16T10:43:45.901Z,24.1
2018-10-16T10:44:45.742Z,24.2
2018-10-16T10:45:42.998Z,24.2
2018-10-16T10:46:41.032Z,24.2
2018-10-16T10:47:47.901Z,24.2
2018-10-16T10:48:48.243Z,24.2
2018-10-16T10:49:49.026Z,24.2
2018-10-16T10:50:48.236Z,24.2
2018-10-16T10:51:56.576Z,24.2
2018-10-16T10:52:54.475Z,24.2
2018-10-16T10:53:51.799Z,24.2
2018-10-16T10:54:49.125Z,24.2
2018-10-16T10:55:49.548Z,24.2
2018-10-16T10:56:49.905Z,24.2
2018-10-16T10:57:50.203Z,24.2
2018-10-16T10:58:53.862Z,24.2
2018-10-16T10:59:53.364Z,24.2
2018-10-16T11:00:53.130Z,24.2
2018-10-16T11:01:54.460Z,24.2
2018-10-16T11:02:51.747Z,24.2
2018-10-16T11:03:49.024Z,24.2
2018-10-16T11:04:48.935Z,24.2
2018-10-16T11:05:47.739Z,24.2
2018-10-16T11:06:50.301Z,24.2
2018-10-16T11:07:48.048Z,24.2
2018-10-16T11:08:46.529Z,24.2
2018-10-16T11:09:43.900Z,24.2
2018-10-16T11:10:46.607Z,24.1
2018-10-16T11:11:49.085Z,24.2
2018-10-16T11:12:47.880Z,24.1
2018-10-16T11:13:48.439Z,24.1
2018-10-16T11:14:50.926Z,24.1
2018-10-16T11:15:49.707Z,24.1
2018-10-16T11:16:48.619Z,24.2
2018-10-16T11:17:51.400Z,24.1
2018-10-16T11:19:04.290Z,24.1
2018-10-16T11:20:09.776Z,24.2
2018-10-16T11:21:07.178Z,24.2
2018-10-16T11:22:05.420Z,24.2
2018-10-16T11:23:10.018Z,24.2
2018-10-16T11:24:19.817Z,24.2
2018-10-16T11:25:17.044Z,24.2
2018-10-16T11:26:14.385Z,24.2
2018-10-16T11:27:11.850Z,24.2
2018-10-16T11:28:09.112Z,24.2
2018-10-16T11:29:06.508Z,24.2
2018-10-16T11:30:04.286Z,24.2
2018-10-16T11:31:01.588Z,24.2
2018-10-16T11:31:59.149Z,24.2
2018-10-16T11:32:56.805Z,24.3
2018-10-16T11:33:57.284Z,24.3
2018-10-16T11:34:57.864Z,24.3
2018-10-16T11:35:57.749Z,24.3
2018-10-16T11:36:55.395Z,24.3
2018-10-16T11:38:00.363Z,24.3
2018-10-16T11:39:01.886Z,24.3
2018-10-16T11:40:00.802Z,24.3
2018-10-16T11:41:03.663Z,24.3
2018-10-16T11:42:06.007Z,24.3
2018-10-16T11:43:03.419Z,24.3
2018-10-16T11:44:09.868Z,24.3
2018-10-16T11:45:11.223Z,24.3
2018-10-16T11:46:08.880Z,24.3
2018-10-16T11:47:07.042Z,24.4
2018-10-16T11:48:06.671Z,24.4
2018-10-16T11:49:05.624Z,24.4
2018-10-16T11:50:04.847Z,24.4
2018-10-16T11:51:05.756Z,24.4
2018-10-16T11:52:05.635Z,24.4
2018-10-16T11:53:04.261Z,24.4
2018-10-16T11:54:02.028Z,24.4
2018-10-16T11:55:00.862Z,24.4
2018-10-16T11:55:59.165Z,24.4
2018-10-16T11:57:03.404Z,24.4
2018-10-16T11:58:05.299Z,24.4
2018-10-16T11:59:07.029Z,24.4
2018-10-16T12:00:05.729Z,24.4
2018-10-16T12:01:08.452Z,24.4
2018-10-16T12:02:07.346Z,24.4
2018-10-16T12:03:06.151Z,24.4
2018-10-16T12:04:05.010Z,24.4
2018-10-16T12:05:05.126Z,24.4
2018-10-16T12:06:02.639Z,24.4
2018-10-16T12:07:08.100Z,24.4
2018-10-16T12:08:05.616Z,24.5
2018-10-16T12:09:05.782Z,24.5
2018-10-16T12:10:05.193Z,24.5
2018-10-16T12:11:02.852Z,24.5
2018-10-16T12:12:03.391Z,24.5
2018-10-16T12:13:02.383Z,24.5
2018-10-16T12:14:02.566Z,24.5
2018-10-16T12:15:03.525Z,24.5
2018-10-16T12:16:03.303Z,24.5
2018-10-16T12:17:04.467Z,24.5
2018-10-16T12:18:02.498Z,24.6
2018-10-16T12:19:00.272Z,24.5
2018-10-16T12:19:58.659Z,24.5
2018-10-16T12:20:58.969Z,24.5
2018-10-16T12:21:56.566Z,24.6
2018-10-16T12:22:58.474Z,24.6
2018-10-16T12:23:56.531Z,24.6
2018-10-16T12:24:55.272Z,24.6
2018-10-16T12:25:56.285Z,24.6
2018-10-16T12:26:51.341Z,24.6
2018-10-16T12:27:53.921Z,24.6
2018-10-16T12:28:52.319Z,24.6
2018-10-16T12:29:52.667Z,24.6
2018-10-16T12:30:51.764Z,24.6
2018-10-16T12:31:49.274Z,24.6
2018-10-16T12:32:49.319Z,24.6
2018-10-16T12:33:49.847Z,24.6
2018-10-16T12:34:47.625Z,24.6
2018-10-16T12:35:46.618Z,24.7
2018-10-16T12:36:45.524Z,24.7
2018-10-16T12:37:43.643Z,24.7
2018-10-16T12:38:45.482Z,24.7
2018-10-16T12:39:43.281Z,24.7
2018-10-16T12:40:41.667Z,24.7
2018-10-16T12:41:40.757Z,24.6
2018-10-16T12:42:39.047Z,24.7
2018-10-16T12:43:39.729Z,24.7
2018-10-16T12:44:38.034Z,24.7
2018-10-16T12:45:37.782Z,24.6
2018-10-16T12:46:35.509Z,24.6
2018-10-16T12:47:33.037Z,24.6
2018-10-16T12:48:33.989Z,24.6
2018-10-16T12:49:31.536Z,24.6
2018-10-16T12:50:33.205Z,24.6
2018-10-16T12:51:31.263Z,24.6
2018-10-16T12:52:29.947Z,24.6
2018-10-16T12:53:30.123Z,24.6
2018-10-16T12:54:33.983Z,24.6
2018-10-16T12:55:32.032Z,24.6
2018-10-16T12:56:34.938Z,24.7
2018-10-16T12:57:34.104Z,24.7
2018-10-16T12:58:32.310Z,24.7
2018-10-16T12:59:30.112Z,24.7
2018-10-16T13:00:33.953Z,24.7
2018-10-16T13:01:34.848Z,24.7
2018-10-16T13:02:34.672Z,24.6
2018-10-16T13:03:32.366Z,24.7
2018-10-16T13:04:30.600Z,24.7
2018-10-16T13:05:34.689Z,24.7
2018-10-16T13:06:32.391Z,24.7
2018-10-16T13:07:33.740Z,24.7
2018-10-16T13:08:34.990Z,24.7
2018-10-16T13:09:37.563Z,24.7
2018-10-16T13:10:36.815Z,24.7
2018-10-16T13:11:40.501Z,24.7
2018-10-16T13:12:42.238Z,24.7
2018-10-16T13:13:42.842Z,24.7
2018-10-16T13:14:42.142Z,24.7